Adventureland Estates, Iowa
Current Conditions -  °F | °C
As of 7:15 AM on Thursday 30 Oct 2014 (Local Time) from KIKV Reporting Station
Light Rain Light Rain  
Wind Chill: 36°   Ceiling: 5500
Heat Index: 41°   Visibility: 9mi
Dew Point: 39°   Wind: 8mph
Humidity: 93%   Direction: 150°SSE
Pressure: 30.02"   Gusts: NA
Location:  41.6405°N, 93.4586°W
Report Text: KIKV 301215Z AUTO 15007KT 9SM -RA FEW050 OVC055 05/04 A3002 RMK AO2
Loading
Personal Weather Stations






























Interactive Weather Map New forecast layout! Learn more

10-Day Weather Forecast

Advertisements
Track Severe Weather on mobile